sensor_id;sensor_type;location;lat;lon;timestamp;P1;durP1;ratioP1;P2;durP2;ratioP2
62588;SDS011;58504;48.770;9.148;2022-12-29T00:00:08;4.05;;;2.22;;
62588;SDS011;58504;48.770;9.148;2022-12-29T00:02:36;4.25;;;2.40;;
62588;SDS011;58504;48.770;9.148;2022-12-29T00:05:03;3.70;;;2.55;;
62588;SDS011;58504;48.770;9.148;2022-12-29T00:07:31;2.83;;;2.30;;
62588;SDS011;58504;48.770;9.148;2022-12-29T00:10:00;3.17;;;1.70;;
62588;SDS011;58504;48.770;9.148;2022-12-29T00:12:26;4.93;;;2.20;;
62588;SDS011;58504;48.770;9.148;2022-12-29T00:15:13;2.85;;;1.80;;
62588;SDS011;58504;48.770;9.148;2022-12-29T00:17:58;2.00;;;1.80;;
62588;SDS011;58504;48.770;9.148;2022-12-29T00:20:25;2.42;;;2.08;;
62588;SDS011;58504;48.770;9.148;2022-12-29T00:23:09;2.15;;;1.80;;
62588;SDS011;58504;48.770;9.148;2022-12-29T00:25:54;3.35;;;1.85;;
62588;SDS011;58504;48.770;9.148;2022-12-29T00:28:39;3.58;;;1.98;;
62588;SDS011;58504;48.770;9.148;2022-12-29T00:31:23;2.78;;;1.67;;
62588;SDS011;58504;48.770;9.148;2022-12-29T00:34:08;2.70;;;1.67;;
62588;SDS011;58504;48.770;9.148;2022-12-29T00:36:54;2.33;;;1.70;;
62588;SDS011;58504;48.770;9.148;2022-12-29T00:39:22;3.60;;;2.40;;
62588;SDS011;58504;48.770;9.148;2022-12-29T00:42:08;1.63;;;1.45;;
62588;SDS011;58504;48.770;9.148;2022-12-29T00:44:52;2.38;;;1.90;;
62588;SDS011;58504;48.770;9.148;2022-12-29T00:47:19;1.95;;;1.73;;
62588;SDS011;58504;48.770;9.148;2022-12-29T00:49:46;2.60;;;1.80;;
62588;SDS011;58504;48.770;9.148;2022-12-29T00:52:12;3.22;;;2.05;;
62588;SDS011;58504;48.770;9.148;2022-12-29T00:54:40;2.28;;;1.98;;
62588;SDS011;58504;48.770;9.148;2022-12-29T00:57:11;2.67;;;1.45;;
62588;SDS011;58504;48.770;9.148;2022-12-29T00:59:38;2.72;;;2.10;;
62588;SDS011;58504;48.770;9.148;2022-12-29T01:02:07;2.95;;;2.00;;
62588;SDS011;58504;48.770;9.148;2022-12-29T01:04:34;3.88;;;1.77;;
62588;SDS011;58504;48.770;9.148;2022-12-29T01:07:01;2.85;;;2.15;;
62588;SDS011;58504;48.770;9.148;2022-12-29T01:09:28;2.08;;;1.38;;
62588;SDS011;58504;48.770;9.148;2022-12-29T01:12:13;3.67;;;1.58;;
62588;SDS011;58504;48.770;9.148;2022-12-29T01:14:40;4.03;;;1.85;;
62588;SDS011;58504;48.770;9.148;2022-12-29T01:17:07;2.65;;;1.40;;
62588;SDS011;58504;48.770;9.148;2022-12-29T01:19:34;3.00;;;1.90;;
62588;SDS011;58504;48.770;9.148;2022-12-29T01:22:01;2.80;;;1.80;;
62588;SDS011;58504;48.770;9.148;2022-12-29T01:24:28;3.25;;;1.55;;
62588;SDS011;58504;48.770;9.148;2022-12-29T01:26:54;1.80;;;1.63;;
62588;SDS011;58504;48.770;9.148;2022-12-29T01:29:23;1.48;;;1.38;;
62588;SDS011;58504;48.770;9.148;2022-12-29T01:31:49;4.95;;;1.88;;
62588;SDS011;58504;48.770;9.148;2022-12-29T01:34:16;2.50;;;1.60;;
62588;SDS011;58504;48.770;9.148;2022-12-29T01:36:43;1.50;;;1.40;;
62588;SDS011;58504;48.770;9.148;2022-12-29T01:39:10;3.13;;;1.60;;
62588;SDS011;58504;48.770;9.148;2022-12-29T01:41:37;2.53;;;1.73;;
62588;SDS011;58504;48.770;9.148;2022-12-29T01:47:06;3.58;;;1.63;;
62588;SDS011;58504;48.770;9.148;2022-12-29T01:49:34;3.17;;;1.92;;
62588;SDS011;58504;48.770;9.148;2022-12-29T01:52:02;1.52;;;1.42;;
62588;SDS011;58504;48.770;9.148;2022-12-29T01:54:31;2.03;;;1.85;;
62588;SDS011;58504;48.770;9.148;2022-12-29T01:57:03;1.80;;;1.30;;
62588;SDS011;58504;48.770;9.148;2022-12-29T01:59:34;4.25;;;1.15;;
62588;SDS011;58504;48.770;9.148;2022-12-29T02:02:06;2.37;;;1.50;;
62588;SDS011;58504;48.770;9.148;2022-12-29T02:04:33;2.95;;;1.67;;
62588;SDS011;58504;48.770;9.148;2022-12-29T02:07:07;2.67;;;2.30;;
62588;SDS011;58504;48.770;9.148;2022-12-29T02:09:37;1.67;;;1.15;;
62588;SDS011;58504;48.770;9.148;2022-12-29T02:12:04;1.70;;;1.60;;
62588;SDS011;58504;48.770;9.148;2022-12-29T02:14:31;1.80;;;1.70;;
62588;SDS011;58504;48.770;9.148;2022-12-29T02:17:01;1.33;;;1.23;;
62588;SDS011;58504;48.770;9.148;2022-12-29T02:19:58;2.03;;;1.52;;
62588;SDS011;58504;48.770;9.148;2022-12-29T02:22:49;1.80;;;1.50;;
62588;SDS011;58504;48.770;9.148;2022-12-29T02:25:38;1.58;;;1.30;;
62588;SDS011;58504;48.770;9.148;2022-12-29T02:28:25;1.83;;;1.60;;
62588;SDS011;58504;48.770;9.148;2022-12-29T02:31:10;1.95;;;1.50;;
62588;SDS011;58504;48.770;9.148;2022-12-29T02:33:48;1.40;;;1.20;;
62588;SDS011;58504;48.770;9.148;2022-12-29T02:36:25;1.60;;;1.35;;
62588;SDS011;58504;48.770;9.148;2022-12-29T02:39:04;3.33;;;1.77;;
62588;SDS011;58504;48.770;9.148;2022-12-29T02:41:38;1.98;;;1.35;;
62588;SDS011;58504;48.770;9.148;2022-12-29T02:44:14;1.63;;;1.20;;
62588;SDS011;58504;48.770;9.148;2022-12-29T02:46:48;1.55;;;1.35;;
62588;SDS011;58504;48.770;9.148;2022-12-29T02:49:20;1.10;;;1.02;;
62588;SDS011;58504;48.770;9.148;2022-12-29T02:51:54;1.10;;;1.08;;
62588;SDS011;58504;48.770;9.148;2022-12-29T02:54:23;1.25;;;1.15;;
62588;SDS011;58504;48.770;9.148;2022-12-29T02:57:11;1.17;;;1.08;;
62588;SDS011;58504;48.770;9.148;2022-12-29T02:59:39;1.60;;;1.38;;
62588;SDS011;58504;48.770;9.148;2022-12-29T03:05:03;1.30;;;1.20;;
62588;SDS011;58504;48.770;9.148;2022-12-29T03:07:43;1.52;;;1.25;;
62588;SDS011;58504;48.770;9.148;2022-12-29T03:10:19;2.42;;;1.42;;
62588;SDS011;58504;48.770;9.148;2022-12-29T03:13:01;1.30;;;1.20;;
62588;SDS011;58504;48.770;9.148;2022-12-29T03:15:50;1.60;;;1.25;;
62588;SDS011;58504;48.770;9.148;2022-12-29T03:18:32;1.30;;;1.20;;
62588;SDS011;58504;48.770;9.148;2022-12-29T03:21:08;1.17;;;1.10;;
62588;SDS011;58504;48.770;9.148;2022-12-29T03:23:38;1.13;;;1.05;;
62588;SDS011;58504;48.770;9.148;2022-12-29T03:26:08;1.70;;;1.33;;
62588;SDS011;58504;48.770;9.148;2022-12-29T03:28:38;1.45;;;1.20;;
62588;SDS011;58504;48.770;9.148;2022-12-29T03:31:08;1.02;;;1.00;;
62588;SDS011;58504;48.770;9.148;2022-12-29T03:33:37;1.15;;;1.05;;
62588;SDS011;58504;48.770;9.148;2022-12-29T03:36:07;1.73;;;1.25;;
62588;SDS011;58504;48.770;9.148;2022-12-29T03:38:40;0.70;;;0.70;;
62588;SDS011;58504;48.770;9.148;2022-12-29T03:41:11;1.13;;;1.02;;
62588;SDS011;58504;48.770;9.148;2022-12-29T03:43:41;1.75;;;1.35;;
62588;SDS011;58504;48.770;9.148;2022-12-29T03:46:08;2.08;;;1.23;;
62588;SDS011;58504;48.770;9.148;2022-12-29T03:48:35;1.73;;;1.33;;
62588;SDS011;58504;48.770;9.148;2022-12-29T03:51:03;0.93;;;0.93;;
62588;SDS011;58504;48.770;9.148;2022-12-29T03:53:30;1.20;;;1.10;;
62588;SDS011;58504;48.770;9.148;2022-12-29T03:55:57;0.85;;;0.85;;
62588;SDS011;58504;48.770;9.148;2022-12-29T03:58:24;1.25;;;1.15;;
62588;SDS011;58504;48.770;9.148;2022-12-29T04:00:51;1.35;;;1.10;;
62588;SDS011;58504;48.770;9.148;2022-12-29T04:03:17;1.27;;;1.13;;
62588;SDS011;58504;48.770;9.148;2022-12-29T04:05:44;0.98;;;0.98;;
62588;SDS011;58504;48.770;9.148;2022-12-29T04:08:12;0.93;;;0.93;;
62588;SDS011;58504;48.770;9.148;2022-12-29T04:10:39;1.58;;;1.15;;
62588;SDS011;58504;48.770;9.148;2022-12-29T04:13:06;1.23;;;1.13;;
62588;SDS011;58504;48.770;9.148;2022-12-29T04:15:33;1.30;;;1.20;;
62588;SDS011;58504;48.770;9.148;2022-12-29T04:18:00;0.98;;;0.98;;
62588;SDS011;58504;48.770;9.148;2022-12-29T04:20:27;0.85;;;0.85;;
62588;SDS011;58504;48.770;9.148;2022-12-29T04:23:12;1.48;;;1.05;;
62588;SDS011;58504;48.770;9.148;2022-12-29T04:25:39;1.20;;;1.10;;
62588;SDS011;58504;48.770;9.148;2022-12-29T04:28:06;1.23;;;1.10;;
62588;SDS011;58504;48.770;9.148;2022-12-29T04:30:33;1.05;;;0.98;;
62588;SDS011;58504;48.770;9.148;2022-12-29T04:32:59;1.17;;;1.08;;
62588;SDS011;58504;48.770;9.148;2022-12-29T04:35:26;0.88;;;0.70;;
62588;SDS011;58504;48.770;9.148;2022-12-29T04:37:53;1.15;;;0.98;;
62588;SDS011;58504;48.770;9.148;2022-12-29T04:40:21;1.35;;;1.25;;
62588;SDS011;58504;48.770;9.148;2022-12-29T04:42:49;0.90;;;0.90;;
62588;SDS011;58504;48.770;9.148;2022-12-29T04:45:16;1.40;;;1.10;;
62588;SDS011;58504;48.770;9.148;2022-12-29T04:47:43;1.27;;;1.17;;
62588;SDS011;58504;48.770;9.148;2022-12-29T04:50:10;1.80;;;1.00;;
62588;SDS011;58504;48.770;9.148;2022-12-29T04:52:37;0.75;;;0.75;;
62588;SDS011;58504;48.770;9.148;2022-12-29T04:55:04;1.00;;;0.90;;
62588;SDS011;58504;48.770;9.148;2022-12-29T04:57:33;1.02;;;0.80;;
62588;SDS011;58504;48.770;9.148;2022-12-29T05:00:00;1.15;;;0.88;;
62588;SDS011;58504;48.770;9.148;2022-12-29T05:02:26;1.77;;;0.90;;
62588;SDS011;58504;48.770;9.148;2022-12-29T05:04:53;0.85;;;0.70;;
62588;SDS011;58504;48.770;9.148;2022-12-29T05:07:20;1.58;;;1.00;;
62588;SDS011;58504;48.770;9.148;2022-12-29T05:09:47;0.93;;;0.93;;
62588;SDS011;58504;48.770;9.148;2022-12-29T05:12:13;0.80;;;0.80;;
62588;SDS011;58504;48.770;9.148;2022-12-29T05:14:42;0.85;;;0.85;;
62588;SDS011;58504;48.770;9.148;2022-12-29T05:17:08;0.70;;;0.70;;
62588;SDS011;58504;48.770;9.148;2022-12-29T05:19:35;0.70;;;0.70;;
62588;SDS011;58504;48.770;9.148;2022-12-29T05:22:03;0.80;;;0.80;;
62588;SDS011;58504;48.770;9.148;2022-12-29T05:24:29;0.80;;;0.80;;
62588;SDS011;58504;48.770;9.148;2022-12-29T05:26:56;0.60;;;0.60;;
62588;SDS011;58504;48.770;9.148;2022-12-29T05:29:23;0.85;;;0.60;;
62588;SDS011;58504;48.770;9.148;2022-12-29T05:31:51;0.82;;;0.82;;
62588;SDS011;58504;48.770;9.148;2022-12-29T05:34:18;0.85;;;0.70;;
62588;SDS011;58504;48.770;9.148;2022-12-29T05:36:44;0.68;;;0.60;;
62588;SDS011;58504;48.770;9.148;2022-12-29T05:39:11;1.42;;;0.73;;
62588;SDS011;58504;48.770;9.148;2022-12-29T05:41:38;0.45;;;0.45;;
62588;SDS011;58504;48.770;9.148;2022-12-29T05:44:05;0.73;;;0.73;;
62588;SDS011;58504;48.770;9.148;2022-12-29T05:46:32;1.10;;;0.90;;
62588;SDS011;58504;48.770;9.148;2022-12-29T05:49:00;1.13;;;0.93;;
62588;SDS011;58504;48.770;9.148;2022-12-29T05:51:26;0.73;;;0.73;;
62588;SDS011;58504;48.770;9.148;2022-12-29T05:53:53;1.52;;;0.98;;
62588;SDS011;58504;48.770;9.148;2022-12-29T05:56:20;0.88;;;0.88;;
62588;SDS011;58504;48.770;9.148;2022-12-29T05:58:47;0.70;;;0.70;;
62588;SDS011;58504;48.770;9.148;2022-12-29T06:01:14;0.82;;;0.82;;
62588;SDS011;58504;48.770;9.148;2022-12-29T06:03:40;0.77;;;0.77;;
62588;SDS011;58504;48.770;9.148;2022-12-29T06:06:09;0.70;;;0.70;;
62588;SDS011;58504;48.770;9.148;2022-12-29T06:08:35;1.00;;;0.90;;
62588;SDS011;58504;48.770;9.148;2022-12-29T06:11:02;1.02;;;1.02;;
62588;SDS011;58504;48.770;9.148;2022-12-29T06:13:29;0.57;;;0.57;;
62588;SDS011;58504;48.770;9.148;2022-12-29T06:15:56;0.60;;;0.60;;
62588;SDS011;58504;48.770;9.148;2022-12-29T06:18:22;1.17;;;1.08;;
62588;SDS011;58504;48.770;9.148;2022-12-29T06:20:49;0.77;;;0.77;;
62588;SDS011;58504;48.770;9.148;2022-12-29T06:23:17;0.70;;;0.70;;
62588;SDS011;58504;48.770;9.148;2022-12-29T06:25:44;0.57;;;0.57;;
62588;SDS011;58504;48.770;9.148;2022-12-29T06:28:12;0.60;;;0.60;;
62588;SDS011;58504;48.770;9.148;2022-12-29T06:30:40;0.60;;;0.60;;
62588;SDS011;58504;48.770;9.148;2022-12-29T06:33:09;0.70;;;0.70;;
62588;SDS011;58504;48.770;9.148;2022-12-29T06:35:36;0.73;;;0.70;;
62588;SDS011;58504;48.770;9.148;2022-12-29T06:38:03;0.88;;;0.60;;
62588;SDS011;58504;48.770;9.148;2022-12-29T06:40:32;0.88;;;0.73;;
62588;SDS011;58504;48.770;9.148;2022-12-29T06:42:58;0.55;;;0.55;;
62588;SDS011;58504;48.770;9.148;2022-12-29T06:45:25;1.75;;;0.80;;
62588;SDS011;58504;48.770;9.148;2022-12-29T06:47:52;0.52;;;0.52;;
62588;SDS011;58504;48.770;9.148;2022-12-29T06:50:18;0.68;;;0.68;;
62588;SDS011;58504;48.770;9.148;2022-12-29T06:52:45;0.60;;;0.60;;
62588;SDS011;58504;48.770;9.148;2022-12-29T06:55:12;0.77;;;0.77;;
62588;SDS011;58504;48.770;9.148;2022-12-29T06:57:40;0.50;;;0.50;;
62588;SDS011;58504;48.770;9.148;2022-12-29T07:00:07;0.35;;;0.35;;
62588;SDS011;58504;48.770;9.148;2022-12-29T07:02:35;0.70;;;0.70;;
62588;SDS011;58504;48.770;9.148;2022-12-29T07:05:02;0.65;;;0.65;;
62588;SDS011;58504;48.770;9.148;2022-12-29T07:07:28;0.50;;;0.50;;
62588;SDS011;58504;48.770;9.148;2022-12-29T07:09:55;0.60;;;0.60;;
62588;SDS011;58504;48.770;9.148;2022-12-29T07:12:22;1.17;;;1.00;;
62588;SDS011;58504;48.770;9.148;2022-12-29T07:14:50;0.88;;;0.88;;
62588;SDS011;58504;48.770;9.148;2022-12-29T07:17:17;0.82;;;0.60;;
62588;SDS011;58504;48.770;9.148;2022-12-29T07:19:43;0.75;;;0.75;;
62588;SDS011;58504;48.770;9.148;2022-12-29T07:22:10;0.55;;;0.55;;
62588;SDS011;58504;48.770;9.148;2022-12-29T07:24:37;0.73;;;0.73;;
62588;SDS011;58504;48.770;9.148;2022-12-29T07:27:04;0.70;;;0.68;;
62588;SDS011;58504;48.770;9.148;2022-12-29T07:29:31;0.80;;;0.70;;
62588;SDS011;58504;48.770;9.148;2022-12-29T07:31:59;0.70;;;0.70;;
62588;SDS011;58504;48.770;9.148;2022-12-29T07:34:26;0.73;;;0.73;;
62588;SDS011;58504;48.770;9.148;2022-12-29T07:36:53;1.02;;;0.90;;
62588;SDS011;58504;48.770;9.148;2022-12-29T07:39:19;0.98;;;0.80;;
62588;SDS011;58504;48.770;9.148;2022-12-29T07:41:46;0.43;;;0.43;;
62588;SDS011;58504;48.770;9.148;2022-12-29T07:44:13;0.77;;;0.77;;
62588;SDS011;58504;48.770;9.148;2022-12-29T07:46:40;0.55;;;0.55;;
62588;SDS011;58504;48.770;9.148;2022-12-29T07:49:08;0.88;;;0.88;;
62588;SDS011;58504;48.770;9.148;2022-12-29T07:51:34;0.52;;;0.52;;
62588;SDS011;58504;48.770;9.148;2022-12-29T07:54:02;0.75;;;0.75;;
62588;SDS011;58504;48.770;9.148;2022-12-29T07:56:29;1.13;;;1.05;;
62588;SDS011;58504;48.770;9.148;2022-12-29T07:58:55;0.65;;;0.65;;
62588;SDS011;58504;48.770;9.148;2022-12-29T08:01:22;0.57;;;0.57;;
62588;SDS011;58504;48.770;9.148;2022-12-29T08:03:49;0.60;;;0.60;;
62588;SDS011;58504;48.770;9.148;2022-12-29T08:06:17;0.75;;;0.75;;
62588;SDS011;58504;48.770;9.148;2022-12-29T08:08:45;0.98;;;0.88;;
62588;SDS011;58504;48.770;9.148;2022-12-29T08:11:11;0.50;;;0.47;;
62588;SDS011;58504;48.770;9.148;2022-12-29T08:13:38;0.70;;;0.70;;
62588;SDS011;58504;48.770;9.148;2022-12-29T08:16:05;0.60;;;0.60;;
62588;SDS011;58504;48.770;9.148;2022-12-29T08:18:32;0.50;;;0.50;;
62588;SDS011;58504;48.770;9.148;2022-12-29T08:21:00;0.70;;;0.70;;
62588;SDS011;58504;48.770;9.148;2022-12-29T08:23:29;0.50;;;0.50;;
62588;SDS011;58504;48.770;9.148;2022-12-29T08:25:56;0.60;;;0.60;;
62588;SDS011;58504;48.770;9.148;2022-12-29T08:28:23;0.80;;;0.80;;
62588;SDS011;58504;48.770;9.148;2022-12-29T08:30:50;0.73;;;0.73;;
62588;SDS011;58504;48.770;9.148;2022-12-29T08:33:17;0.85;;;0.85;;
62588;SDS011;58504;48.770;9.148;2022-12-29T08:35:44;0.57;;;0.57;;
62588;SDS011;58504;48.770;9.148;2022-12-29T08:38:11;0.82;;;0.80;;
62588;SDS011;58504;48.770;9.148;2022-12-29T08:40:39;0.75;;;0.57;;
62588;SDS011;58504;48.770;9.148;2022-12-29T08:43:06;0.68;;;0.68;;
62588;SDS011;58504;48.770;9.148;2022-12-29T08:45:32;0.63;;;0.63;;
62588;SDS011;58504;48.770;9.148;2022-12-29T08:47:59;0.70;;;0.70;;
62588;SDS011;58504;48.770;9.148;2022-12-29T08:50:26;0.70;;;0.70;;
62588;SDS011;58504;48.770;9.148;2022-12-29T08:52:53;0.60;;;0.60;;
62588;SDS011;58504;48.770;9.148;2022-12-29T08:55:19;0.30;;;0.30;;
62588;SDS011;58504;48.770;9.148;2022-12-29T08:57:48;0.50;;;0.50;;
62588;SDS011;58504;48.770;9.148;2022-12-29T09:00:14;0.35;;;0.35;;
62588;SDS011;58504;48.770;9.148;2022-12-29T09:02:41;0.68;;;0.68;;
62588;SDS011;58504;48.770;9.148;2022-12-29T09:05:08;0.60;;;0.60;;
62588;SDS011;58504;48.770;9.148;2022-12-29T09:07:35;0.63;;;0.63;;
62588;SDS011;58504;48.770;9.148;2022-12-29T09:10:02;0.80;;;0.80;;
62588;SDS011;58504;48.770;9.148;2022-12-29T09:12:29;0.50;;;0.50;;
62588;SDS011;58504;48.770;9.148;2022-12-29T09:14:57;0.73;;;0.70;;
62588;SDS011;58504;48.770;9.148;2022-12-29T09:17:24;0.68;;;0.57;;
62588;SDS011;58504;48.770;9.148;2022-12-29T09:20:12;1.00;;;0.82;;
62588;SDS011;58504;48.770;9.148;2022-12-29T09:22:40;0.50;;;0.50;;
62588;SDS011;58504;48.770;9.148;2022-12-29T09:25:07;0.60;;;0.60;;
62588;SDS011;58504;48.770;9.148;2022-12-29T09:27:35;1.95;;;0.60;;
62588;SDS011;58504;48.770;9.148;2022-12-29T09:30:04;0.70;;;0.70;;
62588;SDS011;58504;48.770;9.148;2022-12-29T09:32:32;0.68;;;0.68;;
62588;SDS011;58504;48.770;9.148;2022-12-29T09:34:59;0.88;;;0.57;;
62588;SDS011;58504;48.770;9.148;2022-12-29T09:37:26;0.68;;;0.68;;
62588;SDS011;58504;48.770;9.148;2022-12-29T09:39:53;0.45;;;0.45;;
62588;SDS011;58504;48.770;9.148;2022-12-29T09:42:22;1.02;;;0.90;;
62588;SDS011;58504;48.770;9.148;2022-12-29T09:44:56;0.82;;;0.82;;
62588;SDS011;58504;48.770;9.148;2022-12-29T09:50:03;0.80;;;0.80;;
62588;SDS011;58504;48.770;9.148;2022-12-29T09:55:08;0.50;;;0.50;;
62588;SDS011;58504;48.770;9.148;2022-12-29T09:57:39;1.02;;;0.60;;
62588;SDS011;58504;48.770;9.148;2022-12-29T10:00:13;0.60;;;0.60;;
62588;SDS011;58504;48.770;9.148;2022-12-29T10:02:43;0.63;;;0.63;;
62588;SDS011;58504;48.770;9.148;2022-12-29T10:05:13;0.65;;;0.60;;
62588;SDS011;58504;48.770;9.148;2022-12-29T10:07:47;0.52;;;0.52;;
62588;SDS011;58504;48.770;9.148;2022-12-29T10:10:25;0.70;;;0.70;;
62588;SDS011;58504;48.770;9.148;2022-12-29T10:13:00;0.60;;;0.60;;
62588;SDS011;58504;48.770;9.148;2022-12-29T10:15:37;0.70;;;0.70;;
62588;SDS011;58504;48.770;9.148;2022-12-29T10:18:15;0.60;;;0.60;;
62588;SDS011;58504;48.770;9.148;2022-12-29T10:20:52;0.50;;;0.50;;
62588;SDS011;58504;48.770;9.148;2022-12-29T10:23:26;0.47;;;0.47;;
62588;SDS011;58504;48.770;9.148;2022-12-29T10:25:55;1.48;;;0.73;;
62588;SDS011;58504;48.770;9.148;2022-12-29T10:28:24;2.25;;;0.80;;
62588;SDS011;58504;48.770;9.148;2022-12-29T10:31:02;0.60;;;0.60;;
62588;SDS011;58504;48.770;9.148;2022-12-29T10:33:34;0.90;;;0.50;;
62588;SDS011;58504;48.770;9.148;2022-12-29T10:36:04;1.17;;;0.63;;
62588;SDS011;58504;48.770;9.148;2022-12-29T10:38:40;1.65;;;0.90;;
62588;SDS011;58504;48.770;9.148;2022-12-29T10:41:15;2.20;;;1.08;;
62588;SDS011;58504;48.770;9.148;2022-12-29T10:43:46;0.65;;;0.65;;
62588;SDS011;58504;48.770;9.148;2022-12-29T10:46:17;3.97;;;1.25;;
62588;SDS011;58504;48.770;9.148;2022-12-29T10:48:46;2.13;;;1.20;;
62588;SDS011;58504;48.770;9.148;2022-12-29T10:51:15;1.98;;;0.90;;
62588;SDS011;58504;48.770;9.148;2022-12-29T10:53:48;2.90;;;1.15;;
62588;SDS011;58504;48.770;9.148;2022-12-29T10:56:21;1.27;;;0.77;;
62588;SDS011;58504;48.770;9.148;2022-12-29T10:58:56;0.93;;;0.80;;
62588;SDS011;58504;48.770;9.148;2022-12-29T11:01:32;0.90;;;0.80;;
62588;SDS011;58504;48.770;9.148;2022-12-29T11:04:03;2.15;;;1.17;;
62588;SDS011;58504;48.770;9.148;2022-12-29T11:06:36;2.60;;;1.08;;
62588;SDS011;58504;48.770;9.148;2022-12-29T11:09:08;1.02;;;0.75;;
62588;SDS011;58504;48.770;9.148;2022-12-29T11:11:39;1.73;;;0.80;;
62588;SDS011;58504;48.770;9.148;2022-12-29T11:14:10;1.20;;;0.90;;
62588;SDS011;58504;48.770;9.148;2022-12-29T11:16:40;0.95;;;0.95;;
62588;SDS011;58504;48.770;9.148;2022-12-29T11:19:19;1.08;;;0.88;;
62588;SDS011;58504;48.770;9.148;2022-12-29T11:21:47;1.20;;;0.88;;
62588;SDS011;58504;48.770;9.148;2022-12-29T11:24:19;9.25;;;1.77;;
62588;SDS011;58504;48.770;9.148;2022-12-29T11:29:23;0.70;;;0.70;;
62588;SDS011;58504;48.770;9.148;2022-12-29T11:31:53;0.68;;;0.65;;
62588;SDS011;58504;48.770;9.148;2022-12-29T11:34:24;1.23;;;1.07;;
62588;SDS011;58504;48.770;9.148;2022-12-29T11:36:52;2.45;;;1.20;;
62588;SDS011;58504;48.770;9.148;2022-12-29T11:39:26;1.13;;;0.93;;
62588;SDS011;58504;48.770;9.148;2022-12-29T11:41:56;1.23;;;0.95;;
62588;SDS011;58504;48.770;9.148;2022-12-29T11:44:24;2.80;;;0.95;;
62588;SDS011;58504;48.770;9.148;2022-12-29T11:46:53;1.13;;;0.90;;
62588;SDS011;58504;48.770;9.148;2022-12-29T11:49:23;1.77;;;0.90;;
62588;SDS011;58504;48.770;9.148;2022-12-29T11:51:53;1.05;;;0.52;;
62588;SDS011;58504;48.770;9.148;2022-12-29T11:54:22;2.70;;;1.10;;
62588;SDS011;58504;48.770;9.148;2022-12-29T11:56:50;0.90;;;0.90;;
62588;SDS011;58504;48.770;9.148;2022-12-29T11:59:34;1.00;;;0.70;;
62588;SDS011;58504;48.770;9.148;2022-12-29T12:02:22;2.60;;;0.90;;
62588;SDS011;58504;48.770;9.148;2022-12-29T12:04:59;2.30;;;0.70;;
62588;SDS011;58504;48.770;9.148;2022-12-29T12:07:37;0.70;;;0.70;;
62588;SDS011;58504;48.770;9.148;2022-12-29T12:10:10;1.35;;;0.73;;
62588;SDS011;58504;48.770;9.148;2022-12-29T12:12:48;0.80;;;0.80;;
62588;SDS011;58504;48.770;9.148;2022-12-29T12:15:22;0.77;;;0.77;;
62588;SDS011;58504;48.770;9.148;2022-12-29T12:17:55;0.93;;;0.50;;
62588;SDS011;58504;48.770;9.148;2022-12-29T12:20:32;1.60;;;0.82;;
62588;SDS011;58504;48.770;9.148;2022-12-29T12:23:07;2.25;;;0.70;;
62588;SDS011;58504;48.770;9.148;2022-12-29T12:25:45;0.98;;;0.88;;
62588;SDS011;58504;48.770;9.148;2022-12-29T12:28:19;1.00;;;0.90;;
62588;SDS011;58504;48.770;9.148;2022-12-29T12:30:52;0.60;;;0.60;;
62588;SDS011;58504;48.770;9.148;2022-12-29T12:33:24;2.67;;;1.05;;
62588;SDS011;58504;48.770;9.148;2022-12-29T12:35:58;1.83;;;0.88;;
62588;SDS011;58504;48.770;9.148;2022-12-29T12:38:41;0.80;;;0.80;;
62588;SDS011;58504;48.770;9.148;2022-12-29T12:41:17;0.75;;;0.75;;
62588;SDS011;58504;48.770;9.148;2022-12-29T12:43:54;0.93;;;0.93;;
62588;SDS011;58504;48.770;9.148;2022-12-29T12:46:34;1.80;;;1.10;;
62588;SDS011;58504;48.770;9.148;2022-12-29T12:49:33;1.17;;;0.75;;
62588;SDS011;58504;48.770;9.148;2022-12-29T12:52:20;0.85;;;0.85;;
62588;SDS011;58504;48.770;9.148;2022-12-29T12:54:59;1.80;;;0.93;;
62588;SDS011;58504;48.770;9.148;2022-12-29T12:57:42;1.70;;;0.90;;
62588;SDS011;58504;48.770;9.148;2022-12-29T13:00:17;0.80;;;0.80;;
62588;SDS011;58504;48.770;9.148;2022-12-29T13:02:49;0.73;;;0.70;;
62588;SDS011;58504;48.770;9.148;2022-12-29T13:05:29;4.82;;;1.00;;
62588;SDS011;58504;48.770;9.148;2022-12-29T13:08:26;2.75;;;1.15;;
62588;SDS011;58504;48.770;9.148;2022-12-29T13:11:06;1.48;;;1.38;;
62588;SDS011;58504;48.770;9.148;2022-12-29T13:13:46;1.42;;;1.25;;
62588;SDS011;58504;48.770;9.148;2022-12-29T13:16:24;1.98;;;1.38;;
62588;SDS011;58504;48.770;9.148;2022-12-29T13:18:59;2.75;;;1.23;;
62588;SDS011;58504;48.770;9.148;2022-12-29T13:21:35;2.10;;;0.90;;
62588;SDS011;58504;48.770;9.148;2022-12-29T13:24:15;1.75;;;1.17;;
62588;SDS011;58504;48.770;9.148;2022-12-29T13:26:50;7.47;;;1.38;;
62588;SDS011;58504;48.770;9.148;2022-12-29T13:29:21;1.63;;;1.07;;
62588;SDS011;58504;48.770;9.148;2022-12-29T13:32:00;2.65;;;1.88;;
62588;SDS011;58504;48.770;9.148;2022-12-29T13:34:41;5.07;;;1.30;;
62588;SDS011;58504;48.770;9.148;2022-12-29T13:37:15;2.15;;;1.30;;
62588;SDS011;58504;48.770;9.148;2022-12-29T13:39:45;3.85;;;0.98;;
62588;SDS011;58504;48.770;9.148;2022-12-29T13:42:16;1.88;;;1.30;;
62588;SDS011;58504;48.770;9.148;2022-12-29T13:44:48;1.27;;;1.17;;
62588;SDS011;58504;48.770;9.148;2022-12-29T13:47:21;1.80;;;1.38;;
62588;SDS011;58504;48.770;9.148;2022-12-29T13:49:52;1.75;;;1.20;;
62588;SDS011;58504;48.770;9.148;2022-12-29T13:52:24;1.85;;;1.38;;
62588;SDS011;58504;48.770;9.148;2022-12-29T13:55:00;2.13;;;1.65;;
62588;SDS011;58504;48.770;9.148;2022-12-29T13:57:35;4.55;;;1.25;;
62588;SDS011;58504;48.770;9.148;2022-12-29T14:00:12;2.13;;;1.40;;
62588;SDS011;58504;48.770;9.148;2022-12-29T14:02:47;10.70;;;1.92;;
62588;SDS011;58504;48.770;9.148;2022-12-29T14:05:27;2.70;;;1.20;;
62588;SDS011;58504;48.770;9.148;2022-12-29T14:08:00;2.17;;;1.23;;
62588;SDS011;58504;48.770;9.148;2022-12-29T14:10:30;3.67;;;1.10;;
62588;SDS011;58504;48.770;9.148;2022-12-29T14:13:02;11.32;;;2.67;;
62588;SDS011;58504;48.770;9.148;2022-12-29T14:15:31;10.98;;;2.65;;
62588;SDS011;58504;48.770;9.148;2022-12-29T14:18:10;7.35;;;3.20;;
62588;SDS011;58504;48.770;9.148;2022-12-29T14:20:46;7.65;;;3.40;;
62588;SDS011;58504;48.770;9.148;2022-12-29T14:23:35;8.38;;;3.45;;
62588;SDS011;58504;48.770;9.148;2022-12-29T14:26:15;7.93;;;3.40;;
62588;SDS011;58504;48.770;9.148;2022-12-29T14:28:43;6.70;;;3.35;;
62588;SDS011;58504;48.770;9.148;2022-12-29T14:34:15;6.38;;;3.55;;
62588;SDS011;58504;48.770;9.148;2022-12-29T14:36:53;15.07;;;4.25;;
62588;SDS011;58504;48.770;9.148;2022-12-29T14:39:28;13.50;;;5.07;;
62588;SDS011;58504;48.770;9.148;2022-12-29T14:42:01;9.68;;;4.50;;
62588;SDS011;58504;48.770;9.148;2022-12-29T14:44:31;7.20;;;3.80;;
62588;SDS011;58504;48.770;9.148;2022-12-29T14:46:59;6.72;;;3.85;;
62588;SDS011;58504;48.770;9.148;2022-12-29T14:49:30;7.13;;;4.28;;
62588;SDS011;58504;48.770;9.148;2022-12-29T14:52:06;7.78;;;4.25;;
62588;SDS011;58504;48.770;9.148;2022-12-29T14:54:50;8.75;;;4.20;;
62588;SDS011;58504;48.770;9.148;2022-12-29T14:57:20;8.20;;;3.65;;
62588;SDS011;58504;48.770;9.148;2022-12-29T14:59:52;8.40;;;4.13;;
62588;SDS011;58504;48.770;9.148;2022-12-29T15:02:22;5.25;;;3.25;;
62588;SDS011;58504;48.770;9.148;2022-12-29T15:04:52;9.93;;;4.50;;
62588;SDS011;58504;48.770;9.148;2022-12-29T15:07:24;11.20;;;4.25;;
62588;SDS011;58504;48.770;9.148;2022-12-29T15:09:56;9.15;;;4.30;;
62588;SDS011;58504;48.770;9.148;2022-12-29T15:12:30;9.45;;;4.30;;
62588;SDS011;58504;48.770;9.148;2022-12-29T15:15:10;18.42;;;4.45;;
62588;SDS011;58504;48.770;9.148;2022-12-29T15:17:44;6.90;;;4.50;;
62588;SDS011;58504;48.770;9.148;2022-12-29T15:20:16;8.18;;;3.72;;
62588;SDS011;58504;48.770;9.148;2022-12-29T15:22:48;11.73;;;4.25;;
62588;SDS011;58504;48.770;9.148;2022-12-29T15:25:21;13.00;;;4.03;;
62588;SDS011;58504;48.770;9.148;2022-12-29T15:27:49;10.80;;;4.47;;